Last 24 Hours

Red Mountain

10 Minute Data | America/Los_Angeles
as of 5/8/26 3:39 PM PDT
Date & Time Temp (°F) Dew Pt (°F) RH (%) Wind Spd (mph) Wind Dir (°) Wind Gust (mph) Wind Gst Dir (°) Daily Max Temp (°F) Daily Min Temp (°F)
5/8/26 - 1530 72.5 44.2 36 14.4 WSW | 245 22.2 WSW | 246 75.2 63.5
5/8/26 - 1520 73.3 45.3 37 12.6 SW | 236 23.7 SW | 234 75.2 63.5
5/8/26 - 1510 74.1 46.2 37 11.6 WSW | 239 21.5 W | 265 75.2 63.5
5/8/26 - 1500 73.4 46.2 38 13.1 WSW | 254 20.0 WSW | 244 74.1 63.5
5/8/26 - 1450 72.4 45.8 39 13.3 W | 265 24.3 SW | 234 74.1 63.5
5/8/26 - 1440 72.4 44.2 36 11.9 W | 260 21.1 W | 273 74.1 63.5
5/8/26 - 1430 72.5 43.6 35 10.0 W | 275 19.6 WNW | 288 74.1 63.5
5/8/26 - 1420 72.7 43.4 35 8.7 W | 273 18.1 W | 270 74.1 63.5
5/8/26 - 1410 71.9 42.8 35 7.9 W | 262 16.4 W | 269 73.8 63.5
5/8/26 - 1400 71.1 40.3 33 9.8 WNW | 299 16.8 W | 269 72.1 63.5
5/8/26 - 1350 71.0 39.8 32 10.5 W | 263 18.3 W | 278 71.7 63.5
5/8/26 - 1340 70.7 39.3 32 9.2 W | 280 16.6 W | 276 71.7 63.5
5/8/26 - 1330 70.7 40.1 33 10.7 W | 272 18.8 W | 276 71.7 63.5
5/8/26 - 1320 70.8 40.3 33 10.3 W | 276 19.3 W | 271 71.7 63.5
5/8/26 - 1310 70.2 40.5 34 10.9 W | 274 17.1 W | 262 70.7 63.5
5/8/26 - 1300 69.5 36.9 30 11.8 WNW | 291 17.0 WNW | 290 70.7 63.5
5/8/26 - 1250 69.8 40.2 34 11.5 WNW | 288 18.3 W | 281 70.7 63.5
5/8/26 - 1240 69.4 39.7 34 12.2 WNW | 286 17.4 WNW | 284 70.7 63.5
5/8/26 - 1230 69.3 40.2 35 12.0 WNW | 284 18.4 WNW | 286 70.7 63.5
5/8/26 - 1220 68.9 40.7 36 11.6 W | 279 15.9 WNW | 297 70.7 63.5
5/8/26 - 1210 69.4 42.7 38 10.9 W | 281 16.2 NW | 304 70.7 63.5
5/8/26 - 1200 69.9 41.6 36 9.8 W | 270 18.0 W | 261 70.7 63.5
5/8/26 - 1150 70.1 41.6 36 8.3 WNW | 282 13.2 W | 270 70.7 63.5
5/8/26 - 1140 69.8 40.8 35 8.5 WNW | 282 12.6 NW | 306 70.4 63.5
5/8/26 - 1130 69.6 38.8 32 8.3 W | 279 12.6 WNW | 295 70.1 63.5
5/8/26 - 1120 69.4 36.3 30 8.6 WNW | 290 13.6 WNW | 286 70.1 63.5
5/8/26 - 1110 69.3 36.7 30 8.7 W | 278 13.7 W | 267 69.8 63.5
5/8/26 - 1100 68.7 36.4 30 8.6 W | 279 12.7 WNW | 282 69.3 63.5
5/8/26 - 1050 68.2 37.3 32 8.4 W | 272 12.1 WNW | 285 69.3 63.5
5/8/26 - 1040 68.5 37.2 32 8.1 W | 265 14.8 W | 263 69.3 63.5
5/8/26 - 1030 68.4 35.8 30 7.9 W | 272 12.9 WSW | 258 69.3 63.5
5/8/26 - 1020 68.2 34.6 29 9.4 W | 272 14.5 W | 268 69.3 63.5
5/8/26 - 1010 67.9 36.0 31 9.7 W | 265 13.2 W | 262 69.3 63.5
5/8/26 - 1000 68.2 38.8 34 8.5 W | 269 13.4 W | 261 69.3 63.5
5/8/26 - 0950 68.1 36.2 31 10.3 WNW | 289 13.6 WNW | 288 69.3 63.5
5/8/26 - 0940 68.2 35.4 30 8.7 WNW | 288 13.8 WNW | 289 69.3 63.5
5/8/26 - 0930 67.9 33.7 28 10.2 WNW | 297 13.2 WNW | 299 69.3 63.5
5/8/26 - 0920 68.1 36.4 31 9.7 WNW | 300 14.2 W | 279 69.3 63.5
5/8/26 - 0910 68.6 36.9 31 7.9 NW | 307 11.6 NW | 315 69.3 63.5
5/8/26 - 0900 68.8 33.3 27 8.2 NW | 311 12.0 NW | 310 69.3 63.5
5/8/26 - 0850 68.9 31.6 25 9.4 NW | 317 12.9 NW | 308 69.3 63.5
5/8/26 - 0840 68.9 31.5 25 11.1 NW | 316 13.5 NW | 310 69.1 63.5
5/8/26 - 0830 69.0 31.2 25 11.8 NW | 316 14.5 NW | 324 69.1 63.5
5/8/26 - 0820 69.0 31.0 24 12.3 NW | 319 14.8 NW | 324 69.1 63.5
5/8/26 - 0810 68.6 31.4 25 12.8 NW | 318 15.3 NW | 317 69.0 63.5
5/8/26 - 0800 68.5 31.3 25 12.5 NW | 312 15.8 NW | 308 69.0 63.5
5/8/26 - 0750 68.6 31.0 25 13.2 NW | 316 17.6 NW | 315 69.0 63.5
5/8/26 - 0740 68.6 30.8 24 12.4 NW | 311 17.1 NW | 306 69.0 63.5
5/8/26 - 0730 68.7 30.9 24 11.4 NW | 317 15.0 NW | 309 69.0 63.5
5/8/26 - 0720 68.3 32.6 27 9.0 NW | 324 15.9 NW | 315 68.8 63.5
5/8/26 - 0710 68.0 32.8 27 10.7 NW | 319 14.6 NW | 318 68.4 63.5
5/8/26 - 0700 67.8 34.0 29 8.4 NW | 324 11.9 NW | 323 68.4 63.5
5/8/26 - 0650 68.1 33.4 28 8.0 NW | 320 12.6 NW | 319 68.4 63.5
5/8/26 - 0640 68.2 33.6 28 6.7 NW | 323 10.7 WNW | 300 68.4 63.5
5/8/26 - 0630 67.2 35.6 31 4.9 NNW | 336 7.9 NW | 314 68.2 63.5
5/8/26 - 0620 67.5 35.4 30 4.1 NW | 322 5.4 NW | 311 68.2 63.5
5/8/26 - 0610 67.0 37.2 33 4.5 NNW | 329 6.1 NW | 326 68.2 63.5
5/8/26 - 0600 67.4 34.9 30 4.7 NW | 325 5.8 NW | 320 68.2 63.5
5/8/26 - 0550 66.8 37.7 34 5.1 NW | 324 6.7 WNW | 299 67.3 63.5
5/8/26 - 0540 66.5 38.5 36 5.4 NW | 319 6.3 NNW | 329 67.3 63.5
5/8/26 - 0530 67.0 37.4 34 5.4 NW | 316 6.3 NW | 318 67.3 63.5
5/8/26 - 0520 65.6 39.7 39 5.8 WNW | 292 7.2 WNW | 297 67.0 63.5
5/8/26 - 0510 66.3 39.2 37 6.5 WNW | 302 7.2 WNW | 299 67.0 63.5
5/8/26 - 0500 66.5 38.4 36 5.8 WNW | 303 7.3 WNW | 295 67.0 63.5
5/8/26 - 0450 65.3 40.3 40 4.7 W | 281 5.6 WNW | 294 65.5 63.5
5/8/26 - 0440 64.1 40.1 41 4.1 WSW | 256 5.8 WNW | 297 65.3 63.5
5/8/26 - 0430 63.8 40.4 42 3.9 SW | 231 4.5 SW | 230 65.2 63.7
5/8/26 - 0420 64.6 40.9 42 4.7 WSW | 253 5.6 W | 274 65.2 64.0
5/8/26 - 0410 64.6 41.3 43 4.2 WSW | 258 4.6 W | 270 65.2 64.0
5/8/26 - 0400 64.7 41.4 42 3.7 WNW | 286 4.7 WNW | 302 65.2 64.0
5/8/26 - 0350 64.4 41.7 43 3.0 WNW | 286 3.9 W | 281 65.2 64.0
5/8/26 - 0340 64.0 40.9 43 4.1 WSW | 255 5.0 WSW | 258 65.2 64.0
5/8/26 - 0330 64.2 40.9 42 3.7 WSW | 256 4.8 WSW | 257 65.2 64.1
5/8/26 - 0320 64.5 41.5 43 3.5 WSW | 258 4.7 WSW | 256 65.2 64.2
5/8/26 - 0310 64.4 41.4 43 3.9 W | 267 5.8 WNW | 287 65.2 64.2
5/8/26 - 0300 64.4 41.0 42 5.4 WSW | 250 6.1 WSW | 252 65.2 64.2
5/8/26 - 0250 64.6 41.5 43 4.9 W | 259 6.1 W | 260 65.2 64.4
5/8/26 - 0240 64.9 41.6 42 3.5 WSW | 257 5.2 W | 275 65.2 64.4
5/8/26 - 0230 65.0 41.5 42 5.8 WNW | 284 8.2 W | 274 65.2 64.4
5/8/26 - 0220 64.5 41.9 44 5.4 WNW | 282 6.7 WNW | 292 64.9 64.4
5/8/26 - 0210 64.7 42.5 44 7.1 W | 276 8.0 WNW | 283 64.9 64.6
5/8/26 - 0200 64.8 42.3 44 7.6 WNW | 285 9.1 WNW | 284 64.9 64.6
5/8/26 - 0150 64.9 42.1 43 7.0 W | 279 9.1 W | 278 64.9 64.6
5/8/26 - 0140 64.9 42.0 43 6.7 WNW | 282 7.9 WNW | 284 64.9 64.6
5/8/26 - 0130 64.9 41.8 43 6.3 WNW | 293 7.1 NW | 305 64.9 64.6
5/8/26 - 0120 64.8 41.4 42 7.1 NW | 307 8.4 NW | 309 64.9 64.6
5/8/26 - 0110 64.7 41.1 42 7.8 NW | 310 8.9 WNW | 302 64.8 64.6
5/8/26 - 0100 64.7 40.6 41 8.2 NW | 322 9.2 NW | 319 73.4 58.5
5/8/26 - 0050 65.0 40.4 40 8.4 NW | 318 9.4 NW | 312 73.4 58.5
5/8/26 - 0040 65.2 40.1 40 8.1 NW | 316 9.5 NW | 315 73.4 58.5
5/8/26 - 0030 65.2 39.5 39 7.6 NW | 319 8.7 NW | 314 73.4 58.5
5/8/26 - 0020 65.3 38.9 38 6.6 NW | 317 8.6 NW | 307 73.4 58.5
5/8/26 - 0010 65.3 38.0 37 5.9 NNW | 331 7.8 NNW | 333 73.4 58.5
5/8/26 - 0000 65.6 37.8 36 8.0 NNW | 332 10.0 NW | 323 73.4 58.5
5/7/26 - 2350 65.8 37.7 36 8.6 NNW | 327 11.9 NW | 326 73.4 58.5
5/7/26 - 2340 65.8 37.4 35 9.6 NNW | 332 12.7 NNW | 334 73.4 58.5
5/7/26 - 2330 65.4 37.4 35 7.9 NNW | 340 12.3 NW | 321 73.4 58.5
5/7/26 - 2320 65.2 37.5 36 6.7 NNW | 337 9.1 NW | 322 73.4 58.5
5/7/26 - 2310 65.3 37.2 35 6.8 NNW | 335 10.2 NNW | 334 73.4 58.5
5/7/26 - 2300 64.5 38.3 38 6.0 N | 357 8.5 N | 5 73.4 58.5
5/7/26 - 2250 64.8 38.6 38 5.2 N | 2 8.8 NNW | 335 73.4 58.5
5/7/26 - 2240 65.3 38.7 37 5.3 N | 359 8.1 NNW | 341 73.4 58.5
5/7/26 - 2230 65.6 38.2 36 6.2 NNW | 346 8.2 NNW | 347 73.4 58.5
5/7/26 - 2220 66.0 37.7 35 7.9 NNW | 339 10.5 NNW | 335 73.4 58.5
5/7/26 - 2210 65.8 38.2 36 8.0 NNW | 341 12.1 NNW | 333 73.4 58.5
5/7/26 - 2200 65.8 38.1 36 8.6 NNW | 342 10.7 NNW | 347 73.4 58.5
5/7/26 - 2150 66.2 37.6 35 9.3 NNW | 336 12.9 NW | 326 73.4 58.5
5/7/26 - 2140 66.1 37.7 35 8.6 NNW | 331 11.4 NW | 320 73.4 58.5
5/7/26 - 2130 65.8 38.9 37 7.9 NNW | 344 11.0 NNW | 340 73.4 58.5
5/7/26 - 2120 65.9 38.3 36 9.0 NNW | 338 12.8 NNW | 338 73.4 58.5
5/7/26 - 2110 65.5 39.5 38 10.7 NNW | 347 12.7 NNW | 348 73.4 58.5
5/7/26 - 2100 65.4 40.6 40 11.0 NNW | 347 12.6 N | 349 73.4 58.5
5/7/26 - 2050 65.5 41.1 41 12.1 NNW | 342 14.5 NNW | 343 73.4 58.5
5/7/26 - 2040 65.0 43.6 46 12.0 NNW | 341 14.0 NNW | 343 73.4 58.5
5/7/26 - 2030 65.0 44.3 47 12.3 NNW | 345 13.8 NNW | 344 73.4 58.5
5/7/26 - 2020 65.4 42.1 43 12.2 NNW | 346 14.2 NNW | 342 73.4 58.5
5/7/26 - 2010 65.3 42.6 44 11.8 NNW | 340 13.7 NNW | 342 73.4 58.5
5/7/26 - 2000 65.0 44.4 47 12.0 NNW | 341 14.1 NNW | 336 73.4 58.5
5/7/26 - 1950 64.6 46.4 52 12.0 NNW | 340 14.7 NNW | 335 73.4 58.5
5/7/26 - 1940 64.8 47.0 53 12.1 NNW | 345 14.2 NNW | 328 73.4 58.5
5/7/26 - 1930 65.2 47.2 52 12.8 NNW | 347 15.7 NNW | 346 73.4 58.5
5/7/26 - 1920 65.8 45.3 47 13.9 NNW | 336 17.3 NNW | 333 73.4 58.5
5/7/26 - 1910 66.2 45.5 47 14.8 NNW | 340 18.3 NNW | 338 73.4 58.5
5/7/26 - 1900 66.8 44.5 45 14.0 NNW | 334 18.4 NNW | 340 73.4 58.5
5/7/26 - 1850 67.0 45.4 46 15.1 NW | 326 19.8 NW | 319 73.4 58.5
5/7/26 - 1840 67.1 47.1 49 14.4 NW | 318 18.5 NW | 321 73.4 58.5
5/7/26 - 1830 67.5 47.8 49 11.8 NW | 309 16.4 NW | 307 73.4 58.5
5/7/26 - 1820 67.8 50.1 53 12.2 WNW | 294 17.2 WNW | 290 73.4 58.5
5/7/26 - 1810 67.7 50.4 54 12.9 WNW | 296 17.9 NW | 313 73.4 58.5
5/7/26 - 1800 67.8 48.8 50 14.0 NW | 305 19.6 NW | 315 73.4 58.5
5/7/26 - 1750 68.0 48.1 49 17.6 WNW | 303 22.9 NW | 311 73.4 58.5
5/7/26 - 1740 68.7 50.1 52 13.1 W | 281 20.7 WNW | 295 73.4 58.5
5/7/26 - 1730 68.9 50.6 52 12.8 W | 268 18.9 WNW | 283 73.4 58.5
5/7/26 - 1720 68.8 51.0 53 12.7 W | 268 19.3 W | 259 73.4 58.5
5/7/26 - 1710 69.5 51.3 52 13.8 W | 268 19.3 W | 267 73.4 58.5
5/7/26 - 1700 69.7 51.4 52 13.7 W | 278 20.4 W | 276 73.4 58.5
5/7/26 - 1650 69.8 51.2 52 13.6 W | 270 20.0 WNW | 286 73.4 58.5
5/7/26 - 1640 70.1 51.5 52 13.7 W | 275 21.1 WNW | 290 73.4 58.5
5/7/26 - 1630 69.9 51.4 52 13.4 W | 261 21.1 WSW | 255 73.4 58.5
5/7/26 - 1620 70.4 50.9 50 14.2 W | 271 20.0 WNW | 285 73.4 58.5
5/7/26 - 1610 70.0 50.3 50 14.8 W | 271 22.0 W | 273 73.4 58.5
5/7/26 - 1600 70.6 50.1 48 15.5 W | 261 20.9 W | 262 73.4 58.5
5/7/26 - 1550 71.2 50.2 47 13.2 W | 266 22.3 WSW | 258 73.4 58.5
5/7/26 - 1540 71.3 49.9 47 13.8 W | 262 22.2 W | 259 73.4 58.5
5/7/26 - 1530 71.3 49.4 46 16.5 WSW | 258 25.4 W | 264 73.4 58.5
Max 74.1 51.5 54 17.6 - 25.4 - 75.2 64.6
Avg 67.5 40.7 38 9.4 - 13.3 - - -
Min 63.8 30.8 24 3.0 - 3.9 - 64.8 58.5